10 août 2022

Temps Code Temps Temp. Vue Base cloud Vent METAR/SPECI
15:00
V
31 °C 10 km+ - 070° 070° 10 kt METAR LFQQ 101300Z AUTO 07010KT 040V120 CAVOK 31/10 Q1023 NOSIG
14:30
V
30 °C 10 km+ - 050° 050° 10 kt METAR LFQQ 101230Z AUTO 05010KT 360V080 CAVOK 30/10 Q1023 NOSIG
14:00
V
30 °C 10 km+ - 040° 040° 10 kt METAR LFQQ 101200Z AUTO 04010KT 360V080 CAVOK 30/11 Q1023 NOSIG
13:30
V
29 °C 10 km+ - 060° 060° 8 kt METAR LFQQ 101130Z AUTO 06008KT 340V100 CAVOK 29/12 Q1024 NOSIG
13:00
V
29 °C 10 km+ - 030° 030° 10 kt METAR LFQQ 101100Z AUTO 03010KT 350V060 CAVOK 29/13 Q1024 NOSIG
12:30
V
28 °C 10 km+ - 030° 030° 9 kt METAR LFQQ 101030Z AUTO 03009KT 350V060 CAVOK 28/13 Q1024 NOSIG
12:00
V
27 °C 10 km+ - 030° 030° 8 kt METAR LFQQ 101000Z AUTO 03008KT 350V070 CAVOK 27/14 Q1024 NOSIG
11:30
V
25 °C 10 km+ - 040° 040° 7 kt METAR LFQQ 100930Z AUTO 04007KT 360V070 CAVOK 25/14 Q1025 NOSIG
11:00
V
24 °C 10 km+ - 030° 030° 7 kt METAR LFQQ 100900Z AUTO 03007KT 350V070 CAVOK 24/14 Q1025 NOSIG
10:30
V
23 °C 10 km+ - 040° 040° 6 kt METAR LFQQ 100830Z AUTO 04006KT 010V090 CAVOK 23/14 Q1025 NOSIG
10:00
V
22 °C 10 km+ - 060° 060° 7 kt METAR LFQQ 100800Z AUTO 06007KT CAVOK 22/14 Q1025 NOSIG
09:30
V
21 °C 10 km+ - 040° 040° 7 kt METAR LFQQ 100730Z AUTO 04007KT 020V080 CAVOK 21/14 Q1025 NOSIG
09:00
V
20 °C 10 km+ - 040° 040° 8 kt METAR LFQQ 100700Z AUTO 04008KT 020V080 CAVOK 20/13 Q1025 NOSIG
08:30
V
19 °C 10 km+ - 030° 030° 8 kt METAR LFQQ 100630Z AUTO 03008KT CAVOK 19/13 Q1025 NOSIG
08:00
V
18 °C 10 km+ - 030° 030° 8 kt METAR LFQQ 100600Z AUTO 03008KT CAVOK 18/14 Q1025 NOSIG
07:30
V
17 °C 10 km+ - 030° 030° 8 kt METAR LFQQ 100530Z AUTO 03008KT CAVOK 17/14 Q1025 NOSIG
07:00
V
17 °C 10 km+ - 030° 030° 7 kt METAR LFQQ 100500Z AUTO 03007KT CAVOK 17/14 Q1025 NOSIG
06:30
V
17 °C 10 km+ - 030° 030° 7 kt METAR LFQQ 100430Z AUTO 03007KT CAVOK 17/14 Q1025 NOSIG
06:00
V
17 °C 10 km+ - 030° 030° 8 kt METAR LFQQ 100400Z AUTO 03008KT CAVOK 17/14 Q1025 NOSIG
05:30
V
18 °C 10 km+ - 020° 020° 9 kt METAR LFQQ 100330Z AUTO 02009KT CAVOK 18/14 Q1025 NOSIG
05:00
V
18 °C 10 km+ - 020° 020° 9 kt METAR LFQQ 100300Z AUTO 02009KT CAVOK 18/14 Q1025 NOSIG
04:30
V
18 °C 10 km+ - 030° 030° 8 kt METAR LFQQ 100230Z AUTO 03008KT CAVOK 18/14 Q1025 NOSIG
04:00
V
18 °C 10 km+ - 020° 020° 9 kt METAR LFQQ 100200Z AUTO 02009KT CAVOK 18/15 Q1025 NOSIG
03:30
V
19 °C 10 km+ - 030° 030° 9 kt METAR LFQQ 100130Z AUTO 03009KT CAVOK 19/15 Q1025 NOSIG
03:00
V
19 °C 10 km+ - 020° 020° 9 kt METAR LFQQ 100100Z AUTO 02009KT CAVOK 19/15 Q1025 NOSIG
02:30
V
19 °C 10 km+ - 030° 030° 9 kt METAR LFQQ 100030Z AUTO 03009KT CAVOK 19/15 Q1025 NOSIG
02:00
V
20 °C 10 km+ - 030° 030° 9 kt METAR LFQQ 100000Z AUTO 03009KT CAVOK 20/15 Q1025 NOSIG
01:30
V
20 °C 10 km+ - 020° 020° 10 kt METAR LFQQ 092330Z AUTO 02010KT CAVOK 20/15 Q1025 NOSIG
01:00
V
20 °C 10 km+ - 020° 020° 10 kt METAR LFQQ 092300Z AUTO 02010KT CAVOK 20/15 Q1026 NOSIG
00:30
V
21 °C 10 km+ - 020° 020° 12 kt METAR LFQQ 092230Z AUTO 02012KT CAVOK 21/15 Q1026 NOSIG
00:00
V
21 °C 10 km+ - 020° 020° 10 kt METAR LFQQ 092200Z AUTO 02010KT CAVOK 21/15 Q1026 NOSIG

9 août 2022

Temps Code Temps Temp. Vue Base cloud Vent METAR/SPECI
23:30
V
21 °C 10 km+ - 020° 020° 10 kt METAR LFQQ 092130Z AUTO 02010KT CAVOK 21/15 Q1026 NOSIG
23:00
V
21 °C 10 km+ - 020° 020° 10 kt METAR LFQQ 092100Z AUTO 02010KT 360V060 CAVOK 21/14 Q1026 NOSIG
22:30
V
22 °C 10 km+ - 020° 020° 11 kt METAR LFQQ 092030Z AUTO 02011KT CAVOK 22/14 Q1026 NOSIG
22:00
V
23 °C 10 km+ - 020° 020° 11 kt METAR LFQQ 092000Z AUTO 02011KT CAVOK 23/14 Q1026 NOSIG
21:30
V
23 °C 10 km+ - 010° 010° 10 kt METAR LFQQ 091930Z AUTO 01010KT CAVOK 23/14 Q1025 NOSIG
21:00
V
24 °C 10 km+ - 020° 020° 12 kt METAR LFQQ 091900Z AUTO 02012KT CAVOK 24/13 Q1025 NOSIG
20:30
V
25 °C 10 km+ - 020° 020° 12 kt METAR LFQQ 091830Z AUTO 02012KT CAVOK 25/12 Q1025 NOSIG
20:00
V
26 °C 10 km+ - 020° 020° 13 kt METAR LFQQ 091800Z AUTO 02013KT CAVOK 26/12 Q1025 NOSIG
19:30
V
27 °C 10 km+ - 030° 030° 12 - 22 kt METAR LFQQ 091730Z AUTO 03012G22KT CAVOK 27/11 Q1025 NOSIG
19:00
V
27 °C 10 km+ - 020° 020° 14 kt METAR LFQQ 091700Z AUTO 02014KT 350V050 CAVOK 27/12 Q1025 NOSIG
18:30
V
27 °C 10 km+ - 030° 030° 12 kt METAR LFQQ 091630Z AUTO 03012KT CAVOK 27/12 Q1025 NOSIG
18:00
V
28 °C 10 km+ - 020° 020° 13 kt METAR LFQQ 091600Z AUTO 02013KT CAVOK 28/12 Q1025 NOSIG
17:30
V
28 °C 10 km+ - 020° 020° 12 kt METAR LFQQ 091530Z AUTO 02012KT 360V070 CAVOK 28/11 Q1025 NOSIG
17:00
V
28 °C 10 km+ - 030° 030° 12 kt METAR LFQQ 091500Z AUTO 03012KT CAVOK 28/11 Q1025 NOSIG
16:30
V
28 °C 10 km+ - 030° 030° 12 kt METAR LFQQ 091430Z AUTO 03012KT 360V060 CAVOK 28/11 Q1025 NOSIG
16:00
V
28 °C 10 km+ - 040° 040° 12 kt METAR LFQQ 091400Z AUTO 04012KT 010V070 CAVOK 28/11 Q1026 NOSIG
15:30
V
28 °C 10 km+ - 040° 040° 13 kt METAR LFQQ 091330Z AUTO 04013KT CAVOK 28/11 Q1026 NOSIG
15:00
V
27 °C 10 km+ - 040° 040° 11 kt METAR LFQQ 091300Z AUTO 04011KT 010V070 CAVOK 27/11 Q1026 NOSIG
14:30
V
27 °C 10 km+ - 040° 040° 11 kt METAR LFQQ 091230Z AUTO 04011KT 010V070 CAVOK 27/12 Q1026 NOSIG
14:00
V
26 °C 10 km+ - 050° 050° 11 kt METAR LFQQ 091200Z AUTO 05011KT 020V090 CAVOK 26/12 Q1027 NOSIG
13:30
V
26 °C 10 km+ - 030° 030° 13 kt METAR LFQQ 091130Z AUTO 03013KT 350V060 CAVOK 26/12 Q1027 NOSIG
13:00
V
25 °C 10 km+ - 050° 050° 12 kt METAR LFQQ 091100Z AUTO 05012KT 010V090 CAVOK 25/12 Q1027 NOSIG
12:30
V
25 °C 10 km+ - 060° 060° 11 kt METAR LFQQ 091030Z AUTO 06011KT 010V080 CAVOK 25/12 Q1027 NOSIG
12:00
V
24 °C 10 km+ - 030° 030° 11 kt METAR LFQQ 091000Z AUTO 03011KT 360V060 CAVOK 24/12 Q1027 NOSIG
11:30
V
24 °C 10 km+ - 050° 050° 13 kt METAR LFQQ 090930Z AUTO 05013KT 020V080 CAVOK 24/12 Q1027 NOSIG
11:00
V
23 °C 10 km+ - 040° 040° 12 kt METAR LFQQ 090900Z AUTO 04012KT 010V080 CAVOK 23/13 Q1027 NOSIG
10:30
V
22 °C 10 km+ - 030° 030° 13 kt METAR LFQQ 090830Z AUTO 03013KT CAVOK 22/13 Q1027 NOSIG
10:00
V
21 °C 10 km+ - 020° 020° 11 kt METAR LFQQ 090800Z AUTO 02011KT CAVOK 21/13 Q1027 NOSIG
09:30
V
20 °C 10 km+ - 030° 030° 10 kt METAR LFQQ 090730Z AUTO 03010KT 360V060 CAVOK 20/14 Q1027 NOSIG
09:00
V
19 °C 10 km+ - 030° 030° 10 kt METAR LFQQ 090700Z AUTO 03010KT CAVOK 19/13 Q1027 NOSIG
08:30
V
18 °C 10 km+ - 040° 040° 9 kt METAR LFQQ 090630Z AUTO 04009KT CAVOK 18/13 Q1027 NOSIG
08:00
V
18 °C 10 km+ - 020° 020° 10 kt METAR LFQQ 090600Z AUTO 02010KT CAVOK 18/14 Q1027 NOSIG
07:30
V
17 °C 10 km+ - 020° 020° 9 kt METAR LFQQ 090530Z AUTO 02009KT CAVOK 17/14 Q1027 NOSIG
07:00
V
16 °C 10 km+ - 010° 010° 8 kt METAR LFQQ 090500Z AUTO 01008KT CAVOK 16/14 Q1026 NOSIG
06:30
V
16 °C 10 km+ - 020° 020° 9 kt METAR LFQQ 090430Z AUTO 02009KT CAVOK 16/14 Q1026 NOSIG
06:00
V
16 °C 10 km+ - 030° 030° 8 kt METAR LFQQ 090400Z AUTO 03008KT CAVOK 16/14 Q1026 NOSIG
05:30
V
16 °C 10 km+ - 020° 020° 9 kt METAR LFQQ 090330Z AUTO 02009KT CAVOK 16/14 Q1026 NOSIG
05:00
V
17 °C 10 km+ - 020° 020° 9 kt METAR LFQQ 090300Z AUTO 02009KT CAVOK 17/14 Q1026 NOSIG
04:30
V
17 °C 10 km+ - 030° 030° 9 kt METAR LFQQ 090230Z AUTO 03009KT CAVOK 17/14 Q1026 NOSIG
04:00
V
17 °C 10 km+ - 020° 020° 10 kt METAR LFQQ 090200Z AUTO 02010KT CAVOK 17/14 Q1026 NOSIG
03:30
V
17 °C 10 km+ - 020° 020° 10 kt METAR LFQQ 090130Z AUTO 02010KT CAVOK 17/14 Q1026 NOSIG
03:00
V
17 °C 10 km+ - 020° 020° 10 kt METAR LFQQ 090100Z AUTO 02010KT CAVOK 17/14 Q1026 NOSIG
02:30
V
17 °C 10 km+ - 020° 020° 10 kt METAR LFQQ 090030Z AUTO 02010KT CAVOK 17/14 Q1026 NOSIG
02:00
V
18 °C 10 km+ - 020° 020° 10 kt METAR LFQQ 090000Z AUTO 02010KT CAVOK 18/14 Q1027 NOSIG
01:30
V
18 °C 10 km+ - 020° 020° 9 kt METAR LFQQ 082330Z AUTO 02009KT CAVOK 18/14 Q1027 NOSIG
01:00
V
18 °C 10 km+ - 020° 020° 10 kt METAR LFQQ 082300Z AUTO 02010KT CAVOK 18/14 Q1026 NOSIG
00:30
V
18 °C 10 km+ - 020° 020° 11 kt METAR LFQQ 082230Z AUTO 02011KT CAVOK 18/14 Q1026 NOSIG
00:00
V
18 °C 10 km+ - 010° 010° 10 kt METAR LFQQ 082200Z AUTO 01010KT CAVOK 18/14 Q1026 NOSIG

8 août 2022

Temps Code Temps Temp. Vue Base cloud Vent METAR/SPECI
23:30
V
19 °C 10 km+ - 010° 010° 10 kt METAR LFQQ 082130Z AUTO 01010KT CAVOK 19/14 Q1026 NOSIG
23:00
V
19 °C 10 km+ - 010° 010° 11 kt METAR LFQQ 082100Z AUTO 01011KT CAVOK 19/13 Q1026 NOSIG
22:30
V
20 °C 10 km+ - 010° 010° 11 kt METAR LFQQ 082030Z AUTO 01011KT CAVOK 20/13 Q1026 NOSIG
22:00
V
20 °C 10 km+ - 010° 010° 11 kt METAR LFQQ 082000Z AUTO 01011KT CAVOK 20/12 Q1026 NOSIG
21:30
V
21 °C 10 km+ - 010° 010° 12 kt METAR LFQQ 081930Z AUTO 01012KT CAVOK 21/12 Q1026 NOSIG
21:00
V
21 °C 10 km+ - 360° 360° 12 kt METAR LFQQ 081900Z AUTO 36012KT CAVOK 21/12 Q1025 NOSIG
20:30
V
23 °C 10 km+ - 020° 020° 12 kt METAR LFQQ 081830Z AUTO 02012KT CAVOK 23/12 Q1025 NOSIG
20:00
V
24 °C 10 km+ - 030° 030° 12 kt METAR LFQQ 081800Z AUTO 03012KT CAVOK 24/11 Q1025 NOSIG
19:30
V
24 °C 10 km+ - 030° 030° 10 kt METAR LFQQ 081730Z AUTO 03010KT CAVOK 24/11 Q1025 NOSIG
19:00
V
25 °C 10 km+ - 030° 030° 11 kt METAR LFQQ 081700Z AUTO 03011KT CAVOK 25/11 Q1025 NOSIG
18:30
V
25 °C 10 km+ - 040° 040° 11 kt METAR LFQQ 081630Z AUTO 04011KT CAVOK 25/11 Q1025 NOSIG
18:00
V
25 °C 10 km+ - 040° 040° 12 kt METAR LFQQ 081600Z AUTO 04012KT 020V080 CAVOK 25/11 Q1025 NOSIG
17:30
V
25 °C 10 km+ - 040° 040° 11 kt METAR LFQQ 081530Z AUTO 04011KT 350V080 CAVOK 25/11 Q1025 NOSIG
17:00
V
25 °C 10 km+ - 010° 010° 12 kt METAR LFQQ 081500Z AUTO 01012KT CAVOK 25/11 Q1025 NOSIG
16:30
V
26 °C 10 km+ - 360° 360° 10 kt METAR LFQQ 081430Z AUTO 36010KT CAVOK 26/11 Q1025 NOSIG
16:00
V
25 °C 10 km+ - 010° 010° 12 kt METAR LFQQ 081400Z AUTO 01012KT 340V080 CAVOK 25/10 Q1025 NOSIG
15:30
V
26 °C 10 km+ - 020° 020° 11 kt METAR LFQQ 081330Z AUTO 02011KT CAVOK 26/11 Q1025 NOSIG
15:00
V
25 °C 10 km+ - 040° 040° 10 kt METAR LFQQ 081300Z AUTO 04010KT 360V070 CAVOK 25/11 Q1025 NOSIG
Données plus anciennes

Nous et des tiers suivons ton comportement sur Internet sur notre site Web à l'aide de cookies. Si tu continues, nous supposons que tu acceptes notre politique en matière de cookies. Apprendre plus